Terminal Aerodrome Forecast
Issued by NWS Nashville, TN

Home | Current Version | Previous Version | Text Only | Print | Product List | Glossary On
Versions: 1 2 3 4 5 6 7 8 9 10 11 12 13 14 15
695
FTUS44 KOHX 070524
TAFBNA
TAF
KBNA 070524Z 0706/0806 VRB04KT P6SM SKC
     FM071800 23010KT P6SM SCT120
     FM072300 21007KT P6SM OVC120=

USA.gov is the U.S. government's official web portal to all federal, state and local government web resources and services.